createdAt,value
2019-02-21T00:04:21.496Z,27.70
2019-02-21T00:09:25.216Z,24.77
2019-02-21T00:14:29.120Z,30.87
2019-02-21T00:19:32.822Z,26.67
2019-02-21T00:24:36.649Z,25.27
2019-02-21T00:29:40.364Z,23.50
2019-02-21T00:34:44.092Z,22.73
2019-02-21T00:39:47.805Z,26.33
2019-02-21T00:44:51.676Z,23.20
2019-02-21T00:49:55.491Z,24.80
2019-02-21T00:54:59.238Z,21.17
2019-02-21T01:00:03.129Z,21.50
2019-02-21T01:05:06.822Z,31.07
2019-02-21T01:10:10.523Z,26.13
2019-02-21T01:15:14.449Z,26.27
2019-02-21T01:20:18.154Z,30.07
2019-02-21T01:25:21.835Z,26.07
2019-02-21T01:30:25.628Z,25.47
2019-02-21T01:35:29.345Z,28.70
2019-02-21T01:40:33.552Z,25.00
2019-02-21T01:45:37.441Z,25.90
2019-02-21T01:50:41.229Z,28.20
2019-02-21T01:55:45.402Z,20.90
2019-02-21T02:00:49.091Z,26.20
2019-02-21T02:05:52.940Z,21.63
2019-02-21T02:10:56.709Z,26.33
2019-02-21T02:16:00.744Z,25.73
2019-02-21T02:21:05.395Z,21.63
2019-02-21T02:26:09.333Z,29.23
2019-02-21T02:31:21.938Z,25.67
2019-02-21T02:36:18.504Z,25.23
2019-02-21T02:41:22.483Z,23.03
2019-02-21T02:46:26.528Z,29.83
2019-02-21T02:51:30.589Z,24.80
2019-02-21T02:56:34.629Z,27.93
2019-02-21T03:01:38.779Z,26.40
2019-02-21T03:06:42.536Z,27.30
2019-02-21T03:11:46.293Z,26.03
2019-02-21T03:16:50.331Z,30.17
2019-02-21T03:21:54.355Z,30.23
2019-02-21T03:26:58.317Z,23.83
2019-02-21T03:32:02.198Z,30.90
2019-02-21T03:37:05.928Z,33.93
2019-02-21T03:42:09.755Z,26.13
2019-02-21T03:47:13.481Z,24.20
2019-02-21T03:52:17.478Z,25.37
2019-02-21T03:57:21.484Z,29.87
2019-02-21T04:02:25.165Z,24.97
2019-02-21T04:07:28.856Z,21.83
2019-02-21T04:12:32.937Z,26.87
2019-02-21T04:17:37.043Z,22.87
2019-02-21T04:22:41.053Z,23.10
2019-02-21T04:27:44.779Z,29.17
2019-02-21T04:32:48.477Z,23.63
2019-02-21T04:37:52.481Z,25.40
2019-02-21T04:42:56.254Z,28.37
2019-02-21T04:47:59.965Z,27.57
2019-02-21T04:53:03.676Z,27.10
2019-02-21T04:58:07.875Z,27.80
2019-02-21T05:03:11.882Z,23.77
2019-02-21T05:08:15.676Z,20.90
2019-02-21T05:13:19.662Z,24.20
2019-02-21T05:18:23.340Z,25.67
2019-02-21T05:23:27.035Z,34.50
2019-02-21T05:28:31.901Z,28.37
2019-02-21T05:33:53.338Z,24.40
2019-02-21T05:39:13.728Z,22.63
2019-02-21T05:44:29.432Z,25.47
2019-02-21T05:49:52.560Z,26.43
2019-02-21T05:55:07.326Z,25.40
2019-02-21T06:00:21.598Z,24.37
2019-02-21T06:05:47.537Z,22.73
2019-02-21T06:11:22.632Z,25.73
2019-02-21T06:16:44.573Z,24.13
2019-02-21T06:22:10.654Z,29.53
2019-02-21T06:27:22.625Z,27.73
2019-02-21T06:32:26.300Z,27.97
2019-02-21T06:37:29.977Z,27.20
2019-02-21T06:42:33.660Z,24.43
2019-02-21T06:47:37.589Z,27.77
2019-02-21T06:52:41.267Z,26.30
2019-02-21T06:57:45.248Z,25.27
2019-02-21T07:02:48.937Z,27.10
2019-02-21T07:07:53.125Z,32.40
2019-02-21T07:13:01.398Z,28.17
2019-02-21T07:18:05.155Z,29.13
2019-02-21T07:23:11.200Z,28.53
2019-02-21T07:28:15.924Z,28.37
2019-02-21T07:33:28.303Z,23.30
2019-02-21T07:38:26.768Z,28.63
2019-02-21T07:43:30.479Z,29.70
2019-02-21T07:48:36.405Z,26.20
2019-02-21T07:53:39.855Z,25.43
2019-02-21T07:58:43.968Z,37.40
2019-02-21T08:03:48.666Z,24.13
2019-02-21T08:08:52.631Z,25.70
2019-02-21T08:13:56.538Z,25.00
2019-02-21T08:19:00.483Z,22.67
2019-02-21T08:24:04.266Z,22.30
2019-02-21T08:29:07.962Z,26.70
2019-02-21T08:34:37.001Z,26.93
2019-02-21T08:39:41.330Z,28.07
2019-02-21T08:44:45.070Z,25.17
2019-02-21T08:49:49.096Z,27.17
2019-02-21T08:54:59.906Z,28.83
2019-02-21T08:59:58.507Z,33.07
2019-02-21T09:05:02.630Z,32.97
2019-02-21T09:10:07.357Z,34.70
2019-02-21T09:15:13.177Z,28.20
2019-02-21T09:20:17.943Z,38.83
2019-02-21T09:25:21.657Z,31.10
2019-02-21T09:30:25.420Z,32.07
2019-02-21T09:35:29.518Z,30.33
2019-02-21T09:40:33.517Z,36.23
2019-02-21T09:45:37.927Z,32.37
2019-02-21T09:50:42.208Z,31.37
2019-02-21T09:55:46.269Z,34.53
2019-02-21T10:00:50.110Z,34.17
2019-02-21T10:05:54.336Z,38.50
2019-02-21T10:11:00.853Z,33.13
2019-02-21T10:16:05.030Z,31.80
2019-02-21T10:21:09.396Z,30.37
2019-02-21T10:26:13.449Z,26.43
2019-02-21T10:31:17.971Z,33.83
2019-02-21T10:36:21.793Z,31.47
2019-02-21T10:41:25.590Z,31.83
2019-02-21T10:46:30.924Z,33.27
2019-02-21T10:51:34.878Z,28.07
2019-02-21T10:56:38.673Z,30.73
2019-02-21T11:01:42.419Z,26.57
2019-02-21T11:06:46.120Z,32.53
2019-02-21T11:11:49.848Z,34.37
2019-02-21T11:16:53.980Z,36.70
2019-02-21T11:21:57.796Z,41.20
2019-02-21T11:27:01.788Z,35.00
2019-02-21T11:32:05.673Z,34.93
2019-02-21T11:37:09.464Z,33.17
2019-02-21T11:42:14.598Z,33.07
2019-02-21T11:47:18.663Z,30.97
2019-02-21T11:52:22.477Z,32.10
2019-02-21T11:57:26.338Z,32.67
2019-02-21T12:02:38.668Z,33.73
2019-02-21T12:07:35.819Z,31.77
2019-02-21T12:12:39.673Z,33.17
2019-02-21T12:17:43.893Z,28.93
2019-02-21T12:22:47.703Z,32.13
2019-02-21T12:27:52.505Z,29.80
2019-02-21T12:32:56.236Z,29.40
2019-02-21T12:38:00.132Z,26.80
2019-02-21T12:43:03.980Z,28.63
2019-02-21T12:48:08.248Z,28.63
2019-02-21T12:53:12.104Z,26.23
2019-02-21T12:58:16.150Z,27.33
2019-02-21T13:03:19.894Z,22.87
2019-02-21T13:08:23.608Z,21.23
2019-02-21T13:13:27.739Z,21.80
2019-02-21T13:18:31.460Z,21.67
2019-02-21T13:23:35.502Z,18.57
2019-02-21T13:28:39.200Z,23.57
2019-02-21T13:33:42.934Z,22.23
2019-02-21T13:38:46.683Z,21.87
2019-02-21T13:43:50.734Z,18.00
2019-02-21T13:49:06.480Z,18.90
2019-02-21T13:54:14.206Z,18.23
2019-02-21T13:59:34.760Z,18.60
2019-02-21T14:04:37.386Z,17.53
2019-02-21T14:09:41.108Z,18.93
2019-02-21T14:14:45.447Z,22.47
2019-02-21T14:19:49.281Z,21.77
2019-02-21T14:24:53.224Z,20.93
2019-02-21T14:29:57.061Z,17.97
2019-02-21T14:35:01.052Z,20.90
2019-02-21T14:40:05.309Z,22.33
2019-02-21T14:45:12.280Z,23.63
2019-02-21T14:50:16.772Z,25.50
2019-02-21T14:55:20.466Z,21.97
2019-02-21T15:00:24.271Z,23.43
2019-02-21T15:05:27.998Z,24.73
2019-02-21T15:10:32.114Z,28.47
2019-02-21T15:15:35.953Z,30.60
2019-02-21T15:20:40.005Z,28.40
2019-02-21T15:25:44.011Z,27.43
2019-02-21T15:30:47.750Z,26.07
2019-02-21T15:35:51.466Z,27.50
2019-02-21T15:40:55.614Z,29.70
2019-02-21T15:45:59.633Z,32.47
2019-02-21T15:51:03.336Z,27.60
2019-02-21T15:56:07.064Z,28.20
2019-02-21T16:01:10.761Z,27.63
2019-02-21T16:06:14.509Z,26.50
2019-02-21T16:11:18.221Z,32.10
2019-02-21T16:16:21.925Z,30.43
2019-02-21T16:21:25.603Z,33.20
2019-02-21T16:26:29.283Z,26.67
2019-02-21T16:31:33.034Z,27.43
2019-02-21T16:36:36.713Z,28.57
2019-02-21T16:41:40.532Z,28.37
2019-02-21T16:46:44.551Z,27.47
2019-02-21T16:51:48.513Z,26.70
2019-02-21T16:56:52.719Z,27.43
2019-02-21T17:01:56.441Z,24.73
2019-02-21T17:07:00.468Z,24.17
2019-02-21T17:12:05.171Z,24.17
2019-02-21T17:17:08.923Z,27.67
2019-02-21T17:22:12.921Z,25.87
2019-02-21T17:27:17.382Z,22.30
2019-02-21T17:32:21.435Z,23.93
2019-02-21T17:37:25.468Z,27.03
2019-02-21T17:42:29.403Z,24.23
2019-02-21T17:47:33.073Z,23.27
2019-02-21T17:52:36.781Z,24.00
2019-02-21T17:57:40.455Z,26.43
2019-02-21T18:02:44.120Z,20.20
2019-02-21T18:07:47.808Z,20.50
2019-02-21T18:12:51.836Z,20.90
2019-02-21T18:17:55.935Z,20.13
2019-02-21T18:22:59.897Z,22.10
2019-02-21T18:28:03.568Z,26.77
2019-02-21T18:33:08.053Z,19.93
2019-02-21T18:38:12.135Z,20.60
2019-02-21T18:43:15.882Z,26.03
2019-02-21T18:48:19.643Z,23.57
2019-02-21T18:53:24.989Z,26.27
2019-02-21T18:58:28.742Z,26.77
2019-02-21T19:03:32.724Z,26.23
2019-02-21T19:08:36.386Z,30.40
2019-02-21T19:13:40.095Z,33.33
2019-02-21T19:18:43.840Z,27.23
2019-02-21T19:23:56.470Z,32.40
2019-02-21T19:29:00.437Z,30.43
2019-02-21T19:34:04.153Z,33.37
2019-02-21T19:39:08.379Z,30.43
2019-02-21T19:44:12.382Z,27.97
2019-02-21T19:49:16.067Z,29.37
2019-02-21T19:54:19.868Z,32.33
2019-02-21T19:59:24.052Z,28.63
2019-02-21T20:04:28.171Z,29.97
2019-02-21T20:09:32.719Z,31.53
2019-02-21T20:14:38.251Z,35.40
2019-02-21T20:19:43.890Z,32.27
2019-02-21T20:24:48.006Z,37.60
2019-02-21T20:29:52.084Z,36.53
2019-02-21T20:34:56.133Z,35.43
2019-02-21T20:39:59.866Z,40.83
2019-02-21T20:45:05.767Z,43.63
2019-02-21T20:50:10.689Z,41.07
2019-02-21T20:55:15.038Z,38.73
2019-02-21T21:00:20.299Z,40.23
2019-02-21T21:05:24.898Z,45.40
2019-02-21T21:10:29.945Z,44.63
2019-02-21T21:15:34.383Z,44.13
2019-02-21T21:20:38.151Z,46.03
2019-02-21T21:25:41.950Z,44.87
2019-02-21T21:30:45.641Z,44.67
2019-02-21T21:35:49.458Z,50.70
2019-02-21T21:40:53.516Z,46.50
2019-02-21T21:46:01.231Z,44.77
2019-02-21T21:51:05.069Z,50.57
2019-02-21T21:56:09.899Z,59.07
2019-02-21T22:01:13.586Z,57.27
2019-02-21T22:06:17.343Z,59.00
2019-02-21T22:11:24.050Z,64.40
2019-02-21T22:16:28.146Z,62.17
2019-02-21T22:21:31.851Z,63.30
2019-02-21T22:26:35.681Z,63.40
2019-02-21T22:31:39.755Z,70.80
2019-02-21T22:36:44.114Z,70.93
2019-02-21T22:41:48.050Z,71.73
2019-02-21T22:46:52.070Z,78.77
2019-02-21T22:51:55.800Z,79.33
2019-02-21T22:56:59.482Z,81.97
2019-02-21T23:02:03.686Z,85.90
2019-02-21T23:07:44.463Z,83.33
2019-02-21T23:12:49.237Z,80.47
2019-02-21T23:17:53.367Z,83.93
2019-02-21T23:22:57.088Z,76.77
2019-02-21T23:28:03.950Z,78.63
2019-02-21T23:33:07.784Z,74.13
2019-02-21T23:38:11.735Z,73.40
2019-02-21T23:43:15.589Z,76.90
2019-02-21T23:48:19.771Z,75.30
2019-02-21T23:53:23.588Z,85.27
2019-02-21T23:58:27.572Z,78.33
